sensor_id;sensor_type;location;lat;lon;timestamp;P1;durP1;ratioP1;P2;durP2;ratioP2
13108;SDS011;6620;53.734;11.510;2023-01-28T00:00:27;1.83;;;0.80;;
13108;SDS011;6620;53.734;11.510;2023-01-28T00:02:52;1.35;;;0.70;;
13108;SDS011;6620;53.734;11.510;2023-01-28T00:05:17;1.90;;;0.80;;
13108;SDS011;6620;53.734;11.510;2023-01-28T00:07:42;1.45;;;0.65;;
13108;SDS011;6620;53.734;11.510;2023-01-28T00:10:07;0.90;;;0.50;;
13108;SDS011;6620;53.734;11.510;2023-01-28T00:12:33;2.33;;;0.50;;
13108;SDS011;6620;53.734;11.510;2023-01-28T00:14:58;0.80;;;0.50;;
13108;SDS011;6620;53.734;11.510;2023-01-28T00:17:23;1.43;;;0.60;;
13108;SDS011;6620;53.734;11.510;2023-01-28T00:19:48;2.17;;;0.60;;
13108;SDS011;6620;53.734;11.510;2023-01-28T00:22:13;4.53;;;1.20;;
13108;SDS011;6620;53.734;11.510;2023-01-28T00:24:39;2.53;;;0.60;;
13108;SDS011;6620;53.734;11.510;2023-01-28T00:27:04;3.50;;;1.07;;
13108;SDS011;6620;53.734;11.510;2023-01-28T00:29:29;6.63;;;0.83;;
13108;SDS011;6620;53.734;11.510;2023-01-28T00:31:54;2.03;;;0.57;;
13108;SDS011;6620;53.734;11.510;2023-01-28T00:34:20;1.85;;;0.55;;
13108;SDS011;6620;53.734;11.510;2023-01-28T00:36:46;2.15;;;0.55;;
13108;SDS011;6620;53.734;11.510;2023-01-28T00:39:21;1.27;;;0.40;;
13108;SDS011;6620;53.734;11.510;2023-01-28T00:41:46;1.37;;;0.63;;
13108;SDS011;6620;53.734;11.510;2023-01-28T00:44:11;4.80;;;0.52;;
13108;SDS011;6620;53.734;11.510;2023-01-28T00:46:36;2.97;;;0.53;;
13108;SDS011;6620;53.734;11.510;2023-01-28T00:49:01;1.80;;;0.50;;
13108;SDS011;6620;53.734;11.510;2023-01-28T00:51:27;2.03;;;0.80;;
13108;SDS011;6620;53.734;11.510;2023-01-28T00:53:52;1.13;;;0.50;;
13108;SDS011;6620;53.734;11.510;2023-01-28T00:56:17;3.45;;;0.75;;
13108;SDS011;6620;53.734;11.510;2023-01-28T00:58:43;1.15;;;0.57;;
13108;SDS011;6620;53.734;11.510;2023-01-28T01:01:12;2.22;;;0.50;;
13108;SDS011;6620;53.734;11.510;2023-01-28T01:03:38;0.63;;;0.30;;
13108;SDS011;6620;53.734;11.510;2023-01-28T01:06:04;2.65;;;0.70;;
13108;SDS011;6620;53.734;11.510;2023-01-28T01:08:29;1.10;;;0.50;;
13108;SDS011;6620;53.734;11.510;2023-01-28T01:10:59;2.40;;;0.50;;
13108;SDS011;6620;53.734;11.510;2023-01-28T01:13:24;2.83;;;0.70;;
13108;SDS011;6620;53.734;11.510;2023-01-28T01:15:49;2.80;;;0.60;;
13108;SDS011;6620;53.734;11.510;2023-01-28T01:18:14;3.30;;;0.70;;
13108;SDS011;6620;53.734;11.510;2023-01-28T01:20:40;2.07;;;0.70;;
13108;SDS011;6620;53.734;11.510;2023-01-28T01:23:09;1.77;;;0.57;;
13108;SDS011;6620;53.734;11.510;2023-01-28T01:25:34;3.92;;;0.80;;
13108;SDS011;6620;53.734;11.510;2023-01-28T01:28:00;1.13;;;0.60;;
13108;SDS011;6620;53.734;11.510;2023-01-28T01:30:25;1.75;;;0.73;;
13108;SDS011;6620;53.734;11.510;2023-01-28T01:32:51;2.45;;;0.50;;
13108;SDS011;6620;53.734;11.510;2023-01-28T01:35:16;1.33;;;0.80;;
13108;SDS011;6620;53.734;11.510;2023-01-28T01:37:42;3.03;;;0.60;;
13108;SDS011;6620;53.734;11.510;2023-01-28T01:40:09;2.65;;;0.70;;
13108;SDS011;6620;53.734;11.510;2023-01-28T01:42:34;1.05;;;0.70;;
13108;SDS011;6620;53.734;11.510;2023-01-28T01:49:53;1.20;;;0.67;;
13108;SDS011;6620;53.734;11.510;2023-01-28T01:52:20;2.20;;;1.35;;
13108;SDS011;6620;53.734;11.510;2023-01-28T01:54:48;2.33;;;0.82;;
13108;SDS011;6620;53.734;11.510;2023-01-28T01:57:17;4.80;;;0.73;;
13108;SDS011;6620;53.734;11.510;2023-01-28T01:59:44;2.15;;;0.70;;
13108;SDS011;6620;53.734;11.510;2023-01-28T02:02:10;2.03;;;0.90;;
13108;SDS011;6620;53.734;11.510;2023-01-28T02:04:36;2.17;;;0.70;;
13108;SDS011;6620;53.734;11.510;2023-01-28T02:07:03;1.27;;;0.47;;
13108;SDS011;6620;53.734;11.510;2023-01-28T02:09:29;2.35;;;0.80;;
13108;SDS011;6620;53.734;11.510;2023-01-28T02:12:02;7.03;;;1.10;;
13108;SDS011;6620;53.734;11.510;2023-01-28T02:14:29;1.42;;;0.50;;
13108;SDS011;6620;53.734;11.510;2023-01-28T02:16:56;1.50;;;0.50;;
13108;SDS011;6620;53.734;11.510;2023-01-28T02:19:22;0.60;;;0.50;;
13108;SDS011;6620;53.734;11.510;2023-01-28T02:22:14;2.30;;;0.40;;
13108;SDS011;6620;53.734;11.510;2023-01-28T02:29:48;3.70;;;0.73;;
13108;SDS011;6620;53.734;11.510;2023-01-28T02:32:23;1.75;;;0.60;;
13108;SDS011;6620;53.734;11.510;2023-01-28T02:34:50;2.25;;;0.60;;
13108;SDS011;6620;53.734;11.510;2023-01-28T02:37:20;0.55;;;0.30;;
13108;SDS011;6620;53.734;11.510;2023-01-28T02:40:09;1.20;;;0.45;;
13108;SDS011;6620;53.734;11.510;2023-01-28T02:42:33;2.75;;;0.65;;
13108;SDS011;6620;53.734;11.510;2023-01-28T02:44:58;2.25;;;0.40;;
13108;SDS011;6620;53.734;11.510;2023-01-28T02:47:24;1.53;;;0.60;;
13108;SDS011;6620;53.734;11.510;2023-01-28T02:50:09;3.55;;;0.38;;
13108;SDS011;6620;53.734;11.510;2023-01-28T02:52:40;1.02;;;0.60;;
13108;SDS011;6620;53.734;11.510;2023-01-28T02:58:04;2.13;;;0.50;;
13108;SDS011;6620;53.734;11.510;2023-01-28T03:03:15;1.20;;;0.60;;
13108;SDS011;6620;53.734;11.510;2023-01-28T03:05:51;1.15;;;0.30;;
13108;SDS011;6620;53.734;11.510;2023-01-28T03:11:24;1.85;;;0.40;;
13108;SDS011;6620;53.734;11.510;2023-01-28T03:14:08;1.33;;;0.30;;
13108;SDS011;6620;53.734;11.510;2023-01-28T03:16:53;1.67;;;0.40;;
13108;SDS011;6620;53.734;11.510;2023-01-28T03:19:38;1.88;;;0.40;;
13108;SDS011;6620;53.734;11.510;2023-01-28T03:22:22;1.45;;;0.30;;
13108;SDS011;6620;53.734;11.510;2023-01-28T03:25:07;0.57;;;0.35;;
13108;SDS011;6620;53.734;11.510;2023-01-28T03:27:55;2.08;;;0.82;;
13108;SDS011;6620;53.734;11.510;2023-01-28T03:30:43;2.10;;;0.20;;
13108;SDS011;6620;53.734;11.510;2023-01-28T03:33:28;2.78;;;0.40;;
13108;SDS011;6620;53.734;11.510;2023-01-28T03:36:12;2.58;;;0.50;;
13108;SDS011;6620;53.734;11.510;2023-01-28T03:38:56;1.23;;;0.28;;
13108;SDS011;6620;53.734;11.510;2023-01-28T03:41:23;1.33;;;0.60;;
13108;SDS011;6620;53.734;11.510;2023-01-28T03:43:48;1.20;;;0.30;;
13108;SDS011;6620;53.734;11.510;2023-01-28T03:46:14;1.88;;;0.35;;
13108;SDS011;6620;53.734;11.510;2023-01-28T03:48:39;0.50;;;0.30;;
13108;SDS011;6620;53.734;11.510;2023-01-28T03:51:04;1.63;;;0.30;;
13108;SDS011;6620;53.734;11.510;2023-01-28T03:53:29;8.40;;;1.33;;
13108;SDS011;6620;53.734;11.510;2023-01-28T03:55:55;0.87;;;0.20;;
13108;SDS011;6620;53.734;11.510;2023-01-28T03:58:23;1.55;;;0.55;;
13108;SDS011;6620;53.734;11.510;2023-01-28T04:01:10;1.23;;;0.30;;
13108;SDS011;6620;53.734;11.510;2023-01-28T04:03:35;1.90;;;0.35;;
13108;SDS011;6620;53.734;11.510;2023-01-28T04:06:04;0.43;;;0.20;;
13108;SDS011;6620;53.734;11.510;2023-01-28T04:08:30;2.25;;;0.50;;
13108;SDS011;6620;53.734;11.510;2023-01-28T04:10:55;1.42;;;0.45;;
13108;SDS011;6620;53.734;11.510;2023-01-28T04:13:20;1.90;;;0.60;;
13108;SDS011;6620;53.734;11.510;2023-01-28T04:15:46;0.97;;;0.47;;
13108;SDS011;6620;53.734;11.510;2023-01-28T04:18:12;1.88;;;0.30;;
13108;SDS011;6620;53.734;11.510;2023-01-28T04:20:37;0.52;;;0.30;;
13108;SDS011;6620;53.734;11.510;2023-01-28T04:23:03;2.55;;;0.30;;
13108;SDS011;6620;53.734;11.510;2023-01-28T04:25:28;3.60;;;0.43;;
13108;SDS011;6620;53.734;11.510;2023-01-28T04:27:53;5.00;;;0.47;;
13108;SDS011;6620;53.734;11.510;2023-01-28T04:30:19;0.98;;;0.50;;
13108;SDS011;6620;53.734;11.510;2023-01-28T04:32:47;0.63;;;0.60;;
13108;SDS011;6620;53.734;11.510;2023-01-28T04:35:14;1.75;;;0.40;;
13108;SDS011;6620;53.734;11.510;2023-01-28T04:37:40;1.42;;;0.30;;
13108;SDS011;6620;53.734;11.510;2023-01-28T04:40:05;2.08;;;0.75;;
13108;SDS011;6620;53.734;11.510;2023-01-28T04:42:30;1.20;;;0.38;;
13108;SDS011;6620;53.734;11.510;2023-01-28T04:44:55;0.97;;;0.60;;
13108;SDS011;6620;53.734;11.510;2023-01-28T04:47:21;1.90;;;0.30;;
13108;SDS011;6620;53.734;11.510;2023-01-28T04:49:46;1.25;;;0.28;;
13108;SDS011;6620;53.734;11.510;2023-01-28T04:52:11;0.52;;;0.20;;
13108;SDS011;6620;53.734;11.510;2023-01-28T04:54:36;1.60;;;0.30;;
13108;SDS011;6620;53.734;11.510;2023-01-28T04:57:01;1.13;;;0.30;;
13108;SDS011;6620;53.734;11.510;2023-01-28T04:59:27;1.17;;;0.55;;
13108;SDS011;6620;53.734;11.510;2023-01-28T05:01:52;0.80;;;0.28;;
13108;SDS011;6620;53.734;11.510;2023-01-28T05:04:17;1.80;;;0.27;;
13108;SDS011;6620;53.734;11.510;2023-01-28T05:06:42;0.70;;;0.47;;
13108;SDS011;6620;53.734;11.510;2023-01-28T05:09:07;5.40;;;0.50;;
13108;SDS011;6620;53.734;11.510;2023-01-28T05:11:32;0.83;;;0.20;;
13108;SDS011;6620;53.734;11.510;2023-01-28T05:13:58;2.05;;;0.43;;
13108;SDS011;6620;53.734;11.510;2023-01-28T05:16:23;1.43;;;0.40;;
13108;SDS011;6620;53.734;11.510;2023-01-28T05:18:48;0.53;;;0.33;;
13108;SDS011;6620;53.734;11.510;2023-01-28T05:21:15;0.50;;;0.30;;
13108;SDS011;6620;53.734;11.510;2023-01-28T05:23:40;1.30;;;0.45;;
13108;SDS011;6620;53.734;11.510;2023-01-28T05:26:06;1.47;;;0.50;;
13108;SDS011;6620;53.734;11.510;2023-01-28T05:28:31;4.70;;;2.20;;
13108;SDS011;6620;53.734;11.510;2023-01-28T05:30:56;2.60;;;0.53;;
13108;SDS011;6620;53.734;11.510;2023-01-28T05:33:21;2.22;;;0.50;;
13108;SDS011;6620;53.734;11.510;2023-01-28T05:35:46;0.60;;;0.43;;
13108;SDS011;6620;53.734;11.510;2023-01-28T05:38:13;0.57;;;0.40;;
13108;SDS011;6620;53.734;11.510;2023-01-28T05:40:38;0.73;;;0.50;;
13108;SDS011;6620;53.734;11.510;2023-01-28T05:43:03;2.13;;;0.63;;
13108;SDS011;6620;53.734;11.510;2023-01-28T05:45:28;1.70;;;0.50;;
13108;SDS011;6620;53.734;11.510;2023-01-28T05:47:54;0.98;;;0.63;;
13108;SDS011;6620;53.734;11.510;2023-01-28T05:50:19;1.10;;;0.60;;
13108;SDS011;6620;53.734;11.510;2023-01-28T05:52:44;1.85;;;0.30;;
13108;SDS011;6620;53.734;11.510;2023-01-28T05:55:09;0.30;;;0.30;;
13108;SDS011;6620;53.734;11.510;2023-01-28T05:57:35;1.42;;;0.50;;
13108;SDS011;6620;53.734;11.510;2023-01-28T06:00:00;2.22;;;0.50;;
13108;SDS011;6620;53.734;11.510;2023-01-28T06:02:26;2.13;;;0.63;;
13108;SDS011;6620;53.734;11.510;2023-01-28T06:04:51;1.10;;;0.53;;
13108;SDS011;6620;53.734;11.510;2023-01-28T06:07:16;1.38;;;0.60;;
13108;SDS011;6620;53.734;11.510;2023-01-28T06:09:44;1.23;;;0.55;;
13108;SDS011;6620;53.734;11.510;2023-01-28T06:12:09;1.00;;;0.40;;
13108;SDS011;6620;53.734;11.510;2023-01-28T06:14:34;0.73;;;0.60;;
13108;SDS011;6620;53.734;11.510;2023-01-28T06:17:00;0.95;;;0.45;;
13108;SDS011;6620;53.734;11.510;2023-01-28T06:19:25;1.37;;;0.30;;
13108;SDS011;6620;53.734;11.510;2023-01-28T06:21:50;2.33;;;0.68;;
13108;SDS011;6620;53.734;11.510;2023-01-28T06:24:15;1.30;;;0.50;;
13108;SDS011;6620;53.734;11.510;2023-01-28T06:26:40;0.93;;;0.20;;
13108;SDS011;6620;53.734;11.510;2023-01-28T06:29:05;2.77;;;0.80;;
13108;SDS011;6620;53.734;11.510;2023-01-28T06:31:31;0.50;;;0.40;;
13108;SDS011;6620;53.734;11.510;2023-01-28T06:33:56;0.32;;;0.30;;
13108;SDS011;6620;53.734;11.510;2023-01-28T06:36:21;0.93;;;0.52;;
13108;SDS011;6620;53.734;11.510;2023-01-28T06:38:46;1.03;;;0.50;;
13108;SDS011;6620;53.734;11.510;2023-01-28T06:41:11;3.50;;;0.73;;
13108;SDS011;6620;53.734;11.510;2023-01-28T06:43:37;2.20;;;0.30;;
13108;SDS011;6620;53.734;11.510;2023-01-28T06:46:02;2.00;;;0.40;;
13108;SDS011;6620;53.734;11.510;2023-01-28T06:48:27;1.15;;;0.40;;
13108;SDS011;6620;53.734;11.510;2023-01-28T06:50:52;0.82;;;0.30;;
13108;SDS011;6620;53.734;11.510;2023-01-28T06:53:18;0.30;;;0.30;;
13108;SDS011;6620;53.734;11.510;2023-01-28T06:55:43;2.63;;;0.30;;
13108;SDS011;6620;53.734;11.510;2023-01-28T06:58:08;1.63;;;0.30;;
13108;SDS011;6620;53.734;11.510;2023-01-28T07:00:34;1.20;;;0.30;;
13108;SDS011;6620;53.734;11.510;2023-01-28T07:02:59;1.90;;;0.53;;
13108;SDS011;6620;53.734;11.510;2023-01-28T07:05:24;2.73;;;0.60;;
13108;SDS011;6620;53.734;11.510;2023-01-28T07:07:49;1.60;;;0.38;;
13108;SDS011;6620;53.734;11.510;2023-01-28T07:10:15;3.42;;;0.57;;
13108;SDS011;6620;53.734;11.510;2023-01-28T07:12:40;0.63;;;0.40;;
13108;SDS011;6620;53.734;11.510;2023-01-28T07:15:05;2.45;;;0.40;;
13108;SDS011;6620;53.734;11.510;2023-01-28T07:17:31;1.15;;;0.52;;
13108;SDS011;6620;53.734;11.510;2023-01-28T07:19:56;1.65;;;0.50;;
13108;SDS011;6620;53.734;11.510;2023-01-28T07:22:21;0.77;;;0.30;;
13108;SDS011;6620;53.734;11.510;2023-01-28T07:24:47;1.37;;;0.30;;
13108;SDS011;6620;53.734;11.510;2023-01-28T07:27:12;2.33;;;0.30;;
13108;SDS011;6620;53.734;11.510;2023-01-28T07:29:37;8.00;;;0.50;;
13108;SDS011;6620;53.734;11.510;2023-01-28T07:32:02;1.83;;;0.55;;
13108;SDS011;6620;53.734;11.510;2023-01-28T07:34:29;1.50;;;0.50;;
13108;SDS011;6620;53.734;11.510;2023-01-28T07:36:54;2.15;;;0.85;;
13108;SDS011;6620;53.734;11.510;2023-01-28T07:39:19;3.70;;;1.38;;
13108;SDS011;6620;53.734;11.510;2023-01-28T07:41:45;1.23;;;1.03;;
13108;SDS011;6620;53.734;11.510;2023-01-28T07:44:11;1.95;;;1.30;;
13108;SDS011;6620;53.734;11.510;2023-01-28T07:46:36;3.03;;;1.63;;
13108;SDS011;6620;53.734;11.510;2023-01-28T07:49:01;2.88;;;1.10;;
13108;SDS011;6620;53.734;11.510;2023-01-28T07:51:26;2.87;;;1.07;;
13108;SDS011;6620;53.734;11.510;2023-01-28T07:53:52;1.63;;;1.20;;
13108;SDS011;6620;53.734;11.510;2023-01-28T07:56:17;2.87;;;1.40;;
13108;SDS011;6620;53.734;11.510;2023-01-28T07:58:42;1.30;;;1.20;;
13108;SDS011;6620;53.734;11.510;2023-01-28T08:01:07;2.77;;;1.17;;
13108;SDS011;6620;53.734;11.510;2023-01-28T08:03:32;1.60;;;1.45;;
13108;SDS011;6620;53.734;11.510;2023-01-28T08:05:58;1.25;;;0.98;;
13108;SDS011;6620;53.734;11.510;2023-01-28T08:08:23;5.77;;;1.13;;
13108;SDS011;6620;53.734;11.510;2023-01-28T08:10:49;1.42;;;1.15;;
13108;SDS011;6620;53.734;11.510;2023-01-28T08:13:15;1.42;;;0.90;;
13108;SDS011;6620;53.734;11.510;2023-01-28T08:15:40;3.13;;;1.30;;
13108;SDS011;6620;53.734;11.510;2023-01-28T08:18:06;3.45;;;1.33;;
13108;SDS011;6620;53.734;11.510;2023-01-28T08:20:31;2.03;;;1.25;;
13108;SDS011;6620;53.734;11.510;2023-01-28T08:25:31;2.08;;;1.30;;
13108;SDS011;6620;53.734;11.510;2023-01-28T08:27:57;2.38;;;1.30;;
13108;SDS011;6620;53.734;11.510;2023-01-28T08:30:22;3.40;;;0.90;;
13108;SDS011;6620;53.734;11.510;2023-01-28T08:32:47;4.10;;;0.80;;
13108;SDS011;6620;53.734;11.510;2023-01-28T08:35:12;2.53;;;0.80;;
13108;SDS011;6620;53.734;11.510;2023-01-28T08:37:37;1.17;;;0.70;;
13108;SDS011;6620;53.734;11.510;2023-01-28T08:40:03;1.00;;;0.90;;
13108;SDS011;6620;53.734;11.510;2023-01-28T08:42:28;1.38;;;0.90;;
13108;SDS011;6620;53.734;11.510;2023-01-28T08:44:53;2.40;;;1.15;;
13108;SDS011;6620;53.734;11.510;2023-01-28T08:47:18;2.23;;;1.23;;
13108;SDS011;6620;53.734;11.510;2023-01-28T08:49:44;2.78;;;1.23;;
13108;SDS011;6620;53.734;11.510;2023-01-28T08:52:09;1.65;;;1.27;;
13108;SDS011;6620;53.734;11.510;2023-01-28T08:54:35;4.25;;;1.70;;
13108;SDS011;6620;53.734;11.510;2023-01-28T08:57:00;4.57;;;2.65;;
13108;SDS011;6620;53.734;11.510;2023-01-28T08:59:25;2.77;;;1.90;;
13108;SDS011;6620;53.734;11.510;2023-01-28T09:01:50;7.22;;;2.78;;
13108;SDS011;6620;53.734;11.510;2023-01-28T09:04:15;7.63;;;3.97;;
13108;SDS011;6620;53.734;11.510;2023-01-28T09:06:41;7.28;;;4.03;;
13108;SDS011;6620;53.734;11.510;2023-01-28T09:09:06;4.53;;;3.30;;
13108;SDS011;6620;53.734;11.510;2023-01-28T09:11:31;5.27;;;3.70;;
13108;SDS011;6620;53.734;11.510;2023-01-28T09:13:56;9.07;;;3.83;;
13108;SDS011;6620;53.734;11.510;2023-01-28T09:16:22;5.43;;;4.15;;
13108;SDS011;6620;53.734;11.510;2023-01-28T09:18:47;7.15;;;4.47;;
13108;SDS011;6620;53.734;11.510;2023-01-28T09:21:12;5.23;;;3.47;;
13108;SDS011;6620;53.734;11.510;2023-01-28T09:23:38;7.53;;;4.57;;
13108;SDS011;6620;53.734;11.510;2023-01-28T09:26:04;8.00;;;5.03;;
13108;SDS011;6620;53.734;11.510;2023-01-28T09:28:29;6.97;;;4.25;;
13108;SDS011;6620;53.734;11.510;2023-01-28T09:31:01;9.32;;;4.85;;
13108;SDS011;6620;53.734;11.510;2023-01-28T09:35:52;9.02;;;5.05;;
13108;SDS011;6620;53.734;11.510;2023-01-28T09:38:17;10.20;;;5.73;;
13108;SDS011;6620;53.734;11.510;2023-01-28T09:40:42;8.47;;;5.43;;
13108;SDS011;6620;53.734;11.510;2023-01-28T09:45:47;9.75;;;5.53;;
13108;SDS011;6620;53.734;11.510;2023-01-28T09:48:13;9.25;;;5.18;;
13108;SDS011;6620;53.734;11.510;2023-01-28T09:50:40;10.95;;;4.93;;
13108;SDS011;6620;53.734;11.510;2023-01-28T09:53:09;9.02;;;5.88;;
13108;SDS011;6620;53.734;11.510;2023-01-28T09:55:35;7.65;;;5.07;;
13108;SDS011;6620;53.734;11.510;2023-01-28T09:58:03;6.35;;;5.25;;
13108;SDS011;6620;53.734;11.510;2023-01-28T10:00:37;13.10;;;5.15;;
13108;SDS011;6620;53.734;11.510;2023-01-28T10:03:17;5.68;;;4.32;;
13108;SDS011;6620;53.734;11.510;2023-01-28T10:13:29;8.35;;;5.07;;
13108;SDS011;6620;53.734;11.510;2023-01-28T10:18:42;7.32;;;5.28;;
13108;SDS011;6620;53.734;11.510;2023-01-28T10:21:23;6.68;;;4.80;;
13108;SDS011;6620;53.734;11.510;2023-01-28T10:24:00;11.32;;;5.32;;
13108;SDS011;6620;53.734;11.510;2023-01-28T10:26:32;8.32;;;5.03;;
13108;SDS011;6620;53.734;11.510;2023-01-28T10:28:59;6.90;;;4.90;;
13108;SDS011;6620;53.734;11.510;2023-01-28T10:31:29;7.93;;;5.38;;
13108;SDS011;6620;53.734;11.510;2023-01-28T10:33:55;8.30;;;5.20;;
13108;SDS011;6620;53.734;11.510;2023-01-28T10:36:20;9.63;;;5.00;;
13108;SDS011;6620;53.734;11.510;2023-01-28T10:38:46;9.98;;;5.03;;
13108;SDS011;6620;53.734;11.510;2023-01-28T10:41:12;6.72;;;5.68;;
13108;SDS011;6620;53.734;11.510;2023-01-28T10:43:41;7.13;;;4.63;;
13108;SDS011;6620;53.734;11.510;2023-01-28T10:46:07;7.57;;;5.22;;
13108;SDS011;6620;53.734;11.510;2023-01-28T10:48:35;7.22;;;4.90;;
13108;SDS011;6620;53.734;11.510;2023-01-28T10:51:04;6.70;;;4.43;;
13108;SDS011;6620;53.734;11.510;2023-01-28T10:53:34;8.38;;;4.10;;
13108;SDS011;6620;53.734;11.510;2023-01-28T10:56:00;7.18;;;4.90;;
13108;SDS011;6620;53.734;11.510;2023-01-28T10:58:27;5.78;;;4.45;;
13108;SDS011;6620;53.734;11.510;2023-01-28T11:00:53;6.68;;;4.50;;
13108;SDS011;6620;53.734;11.510;2023-01-28T11:03:20;5.85;;;4.18;;
13108;SDS011;6620;53.734;11.510;2023-01-28T11:05:49;8.10;;;3.85;;
13108;SDS011;6620;53.734;11.510;2023-01-28T11:08:15;7.25;;;3.58;;
13108;SDS011;6620;53.734;11.510;2023-01-28T11:10:41;7.30;;;4.30;;
13108;SDS011;6620;53.734;11.510;2023-01-28T11:15:59;3.15;;;2.80;;
13108;SDS011;6620;53.734;11.510;2023-01-28T11:18:30;5.30;;;3.45;;
13108;SDS011;6620;53.734;11.510;2023-01-28T11:21:37;5.55;;;3.50;;
13108;SDS011;6620;53.734;11.510;2023-01-28T11:23:50;3.45;;;3.08;;
13108;SDS011;6620;53.734;11.510;2023-01-28T11:26:18;8.00;;;3.15;;
13108;SDS011;6620;53.734;11.510;2023-01-28T11:28:45;3.53;;;2.63;;
13108;SDS011;6620;53.734;11.510;2023-01-28T11:31:14;4.82;;;3.17;;
13108;SDS011;6620;53.734;11.510;2023-01-28T11:33:45;3.20;;;2.47;;
13108;SDS011;6620;53.734;11.510;2023-01-28T11:36:14;8.23;;;3.15;;
13108;SDS011;6620;53.734;11.510;2023-01-28T11:38:49;4.15;;;2.70;;
13108;SDS011;6620;53.734;11.510;2023-01-28T11:41:14;5.20;;;2.67;;
13108;SDS011;6620;53.734;11.510;2023-01-28T11:43:40;2.75;;;2.10;;
13108;SDS011;6620;53.734;11.510;2023-01-28T11:46:21;4.63;;;2.22;;
13108;SDS011;6620;53.734;11.510;2023-01-28T11:49:04;4.10;;;2.55;;
13108;SDS011;6620;53.734;11.510;2023-01-28T11:52:33;2.50;;;1.85;;
13108;SDS011;6620;53.734;11.510;2023-01-28T11:57:23;3.47;;;2.70;;
13108;SDS011;6620;53.734;11.510;2023-01-28T12:02:41;3.72;;;2.30;;
13108;SDS011;6620;53.734;11.510;2023-01-28T12:15:23;6.38;;;3.38;;
13108;SDS011;6620;53.734;11.510;2023-01-28T12:23:02;3.37;;;1.77;;
13108;SDS011;6620;53.734;11.510;2023-01-28T12:30:54;3.42;;;1.83;;
13108;SDS011;6620;53.734;11.510;2023-01-28T12:48:48;4.63;;;3.97;;
13108;SDS011;6620;53.734;11.510;2023-01-28T12:51:17;3.45;;;3.15;;
13108;SDS011;6620;53.734;11.510;2023-01-28T12:53:48;7.53;;;3.88;;
13108;SDS011;6620;53.734;11.510;2023-01-28T12:56:16;5.95;;;3.90;;
13108;SDS011;6620;53.734;11.510;2023-01-28T12:58:44;6.70;;;3.13;;
13108;SDS011;6620;53.734;11.510;2023-01-28T13:01:12;7.45;;;4.78;;
13108;SDS011;6620;53.734;11.510;2023-01-28T13:03:40;9.85;;;4.53;;
13108;SDS011;6620;53.734;11.510;2023-01-28T13:06:11;8.05;;;4.00;;
13108;SDS011;6620;53.734;11.510;2023-01-28T13:08:38;6.72;;;4.10;;
13108;SDS011;6620;53.734;11.510;2023-01-28T13:11:04;5.13;;;3.73;;
13108;SDS011;6620;53.734;11.510;2023-01-28T13:15:59;4.47;;;2.47;;
13108;SDS011;6620;53.734;11.510;2023-01-28T13:21:02;5.30;;;4.05;;
13108;SDS011;6620;53.734;11.510;2023-01-28T13:25:55;5.00;;;3.13;;
13108;SDS011;6620;53.734;11.510;2023-01-28T13:28:25;2.10;;;1.83;;
13108;SDS011;6620;53.734;11.510;2023-01-28T13:30:50;3.50;;;3.17;;
13108;SDS011;6620;53.734;11.510;2023-01-28T13:33:31;8.60;;;3.30;;
13108;SDS011;6620;53.734;11.510;2023-01-28T13:35:56;5.82;;;2.45;;
13108;SDS011;6620;53.734;11.510;2023-01-28T13:38:22;4.03;;;2.65;;
13108;SDS011;6620;53.734;11.510;2023-01-28T13:40:55;4.88;;;3.17;;
13108;SDS011;6620;53.734;11.510;2023-01-28T13:46:00;3.17;;;2.88;;
13108;SDS011;6620;53.734;11.510;2023-01-28T13:51:03;4.50;;;2.78;;
13108;SDS011;6620;53.734;11.510;2023-01-28T13:53:44;2.35;;;2.15;;
13108;SDS011;6620;53.734;11.510;2023-01-28T13:56:18;6.00;;;3.35;;
13108;SDS011;6620;53.734;11.510;2023-01-28T14:01:18;4.68;;;2.80;;
13108;SDS011;6620;53.734;11.510;2023-01-28T14:03:56;4.30;;;3.33;;
13108;SDS011;6620;53.734;11.510;2023-01-28T14:06:35;3.45;;;1.92;;
13108;SDS011;6620;53.734;11.510;2023-01-28T14:16:50;6.00;;;4.07;;
13108;SDS011;6620;53.734;11.510;2023-01-28T14:19:19;6.18;;;3.95;;
13108;SDS011;6620;53.734;11.510;2023-01-28T14:21:47;5.97;;;3.13;;
13108;SDS011;6620;53.734;11.510;2023-01-28T14:24:15;6.43;;;4.03;;
13108;SDS011;6620;53.734;11.510;2023-01-28T14:26:52;3.63;;;3.30;;
13108;SDS011;6620;53.734;11.510;2023-01-28T14:29:42;4.95;;;3.15;;
13108;SDS011;6620;53.734;11.510;2023-01-28T14:32:11;3.08;;;2.53;;
13108;SDS011;6620;53.734;11.510;2023-01-28T14:34:36;7.55;;;3.53;;
13108;SDS011;6620;53.734;11.510;2023-01-28T14:37:06;7.88;;;3.20;;
13108;SDS011;6620;53.734;11.510;2023-01-28T14:39:33;2.28;;;2.08;;
13108;SDS011;6620;53.734;11.510;2023-01-28T14:42:02;3.35;;;2.85;;
13108;SDS011;6620;53.734;11.510;2023-01-28T14:44:32;3.88;;;2.30;;
13108;SDS011;6620;53.734;11.510;2023-01-28T14:54:56;3.90;;;3.15;;
13108;SDS011;6620;53.734;11.510;2023-01-28T14:59:56;3.50;;;3.20;;
13108;SDS011;6620;53.734;11.510;2023-01-28T15:02:26;3.85;;;3.35;;
13108;SDS011;6620;53.734;11.510;2023-01-28T15:04:52;3.78;;;3.22;;
13108;SDS011;6620;53.734;11.510;2023-01-28T15:07:24;7.80;;;4.82;;
13108;SDS011;6620;53.734;11.510;2023-01-28T15:10:06;7.82;;;3.92;;
13108;SDS011;6620;53.734;11.510;2023-01-28T15:14:57;15.77;;;4.97;;
13108;SDS011;6620;53.734;11.510;2023-01-28T15:17:24;6.30;;;4.60;;
13108;SDS011;6620;53.734;11.510;2023-01-28T15:19:51;7.75;;;4.18;;
13108;SDS011;6620;53.734;11.510;2023-01-28T15:22:17;8.23;;;4.20;;
13108;SDS011;6620;53.734;11.510;2023-01-28T15:24:43;4.32;;;3.90;;
13108;SDS011;6620;53.734;11.510;2023-01-28T15:27:15;5.00;;;3.60;;
13108;SDS011;6620;53.734;11.510;2023-01-28T15:29:49;10.10;;;4.53;;
13108;SDS011;6620;53.734;11.510;2023-01-28T15:32:19;7.40;;;4.43;;
13108;SDS011;6620;53.734;11.510;2023-01-28T15:34:46;5.75;;;4.95;;
13108;SDS011;6620;53.734;11.510;2023-01-28T15:37:11;6.40;;;4.70;;
13108;SDS011;6620;53.734;11.510;2023-01-28T15:39:37;7.00;;;4.32;;
13108;SDS011;6620;53.734;11.510;2023-01-28T15:42:03;8.43;;;4.10;;
13108;SDS011;6620;53.734;11.510;2023-01-28T15:44:33;6.90;;;4.75;;
13108;SDS011;6620;53.734;11.510;2023-01-28T15:46:59;6.15;;;4.78;;
13108;SDS011;6620;53.734;11.510;2023-01-28T15:49:34;8.88;;;6.20;;
13108;SDS011;6620;53.734;11.510;2023-01-28T15:52:00;6.32;;;3.90;;
13108;SDS011;6620;53.734;11.510;2023-01-28T15:54:27;8.15;;;3.90;;
13108;SDS011;6620;53.734;11.510;2023-01-28T15:56:54;6.47;;;5.35;;
13108;SDS011;6620;53.734;11.510;2023-01-28T15:59:24;8.10;;;5.10;;
13108;SDS011;6620;53.734;11.510;2023-01-28T16:01:50;6.10;;;4.60;;
13108;SDS011;6620;53.734;11.510;2023-01-28T16:04:26;6.30;;;4.25;;
13108;SDS011;6620;53.734;11.510;2023-01-28T16:06:52;6.45;;;4.88;;
13108;SDS011;6620;53.734;11.510;2023-01-28T16:11:43;6.73;;;4.90;;
13108;SDS011;6620;53.734;11.510;2023-01-28T16:16:46;8.43;;;5.40;;
13108;SDS011;6620;53.734;11.510;2023-01-28T16:19:14;4.93;;;4.53;;
13108;SDS011;6620;53.734;11.510;2023-01-28T16:21:43;5.90;;;5.22;;
13108;SDS011;6620;53.734;11.510;2023-01-28T16:24:25;5.78;;;4.50;;
13108;SDS011;6620;53.734;11.510;2023-01-28T16:26:58;9.88;;;5.60;;
13108;SDS011;6620;53.734;11.510;2023-01-28T16:29:23;8.32;;;6.53;;
13108;SDS011;6620;53.734;11.510;2023-01-28T16:31:49;8.05;;;5.45;;
13108;SDS011;6620;53.734;11.510;2023-01-28T16:34:14;5.93;;;5.32;;
13108;SDS011;6620;53.734;11.510;2023-01-28T16:36:39;5.70;;;5.20;;
13108;SDS011;6620;53.734;11.510;2023-01-28T16:39:04;8.63;;;5.53;;
13108;SDS011;6620;53.734;11.510;2023-01-28T16:41:31;7.40;;;5.23;;
13108;SDS011;6620;53.734;11.510;2023-01-28T16:43:57;7.75;;;5.50;;
13108;SDS011;6620;53.734;11.510;2023-01-28T16:46:25;6.15;;;5.18;;
13108;SDS011;6620;53.734;11.510;2023-01-28T16:48:51;8.25;;;6.45;;
13108;SDS011;6620;53.734;11.510;2023-01-28T16:51:17;8.90;;;6.17;;
13108;SDS011;6620;53.734;11.510;2023-01-28T16:53:42;8.55;;;6.13;;